Hlavní strana
METAR-TAF:

METAR-TAF

Letiště :

Vladivostok, Rusko

zeměpisná šířka: 43-07N, zeměpisná délka: 131-56E, výška: 184 m

Aktuální stav počasí

Zpráva byla vytvořena před 24 minutami, v 23:00 UTC
Severoseverozápadní vítr 4 kt
Teplota 5°C
Vlhkost vzduchu 65%
Tlak 1019 hPa
Viditelnost 10 km a více

METAR: UHWW 152300Z 33002MPS 9999 NSC 05/M01 Q1019 R25L/0///70 NOSIG RMK QFE763

Čas: 09:24 (23:24 UTC)

Předpověď počasí

Zpráva byla vytvořena před 3 hodinami a 29 minutami, v 19:55 UTC
Předpověď platná od 15 v 21 UTC do 16 v 21 UTC
Severní vítr 6 kt
Viditelnost 10 km a více
Polojasno ve výšce 3000 ft
Dočasný
od 15 v 21 UTC do 16 v 10 UTC
Severní vítr 14 kt s nárazy do 23 kt
Viditelnost: 4000 m
Oblačno až skoro zataženo ve výšce 2000 ft, Cumulonimbus.
slabé dešťové přeháňky

TAF: UHWW 151955Z 1521/1621 35003MPS 9999 SCT030 TEMPO 1521/1610 35007G12MPS 4000 -SHRA BKN020CB

Stav a předpovědi počasí z více než 4 000 letišť (zprávy METAR a TAF).

Červené a žluté tečky na mapě představují dostupné meteorologické stanice.

Když kurzor umístíte na tečku, zobrazí se název stanice.

Pak kliknutím zobrazíte stav a předpověď počasí.

Chcete-li změnit mapu, kliknutím na zelené tlačítko se znaménkem +mapu přiblížíte, kliknutím na zelené tlačítko se znaménkem – mapu oddálíte a kliknutím na zelené šipky přejdete na sousední mapy.


METAR-TAF: